sensor_id;sensor_type;location;lat;lon;timestamp;P1;durP1;ratioP1;P2;durP2;ratioP2
3819;SDS011;1925;51.356;9.530;2023-03-01T00:01:49;10.63;;;8.30;;
3819;SDS011;1925;51.356;9.530;2023-03-01T00:04:15;7.53;;;6.55;;
3819;SDS011;1925;51.356;9.530;2023-03-01T00:06:44;12.77;;;8.37;;
3819;SDS011;1925;51.356;9.530;2023-03-01T00:09:13;9.35;;;6.65;;
3819;SDS011;1925;51.356;9.530;2023-03-01T00:11:39;10.90;;;7.65;;
3819;SDS011;1925;51.356;9.530;2023-03-01T00:14:05;9.23;;;6.88;;
3819;SDS011;1925;51.356;9.530;2023-03-01T00:16:33;10.70;;;7.88;;
3819;SDS011;1925;51.356;9.530;2023-03-01T00:18:59;9.82;;;6.45;;
3819;SDS011;1925;51.356;9.530;2023-03-01T00:21:25;9.75;;;7.25;;
3819;SDS011;1925;51.356;9.530;2023-03-01T00:23:52;9.80;;;7.43;;
3819;SDS011;1925;51.356;9.530;2023-03-01T00:26:18;11.70;;;6.65;;
3819;SDS011;1925;51.356;9.530;2023-03-01T00:28:45;13.95;;;7.32;;
3819;SDS011;1925;51.356;9.530;2023-03-01T00:31:13;11.10;;;7.47;;
3819;SDS011;1925;51.356;9.530;2023-03-01T00:33:39;9.20;;;7.07;;
3819;SDS011;1925;51.356;9.530;2023-03-01T00:36:06;10.38;;;7.20;;
3819;SDS011;1925;51.356;9.530;2023-03-01T00:38:36;8.95;;;6.85;;
3819;SDS011;1925;51.356;9.530;2023-03-01T00:41:08;10.90;;;7.15;;
3819;SDS011;1925;51.356;9.530;2023-03-01T00:43:35;8.18;;;6.97;;
3819;SDS011;1925;51.356;9.530;2023-03-01T00:46:04;9.65;;;7.97;;
3819;SDS011;1925;51.356;9.530;2023-03-01T00:48:31;12.32;;;8.00;;
3819;SDS011;1925;51.356;9.530;2023-03-01T00:50:57;11.98;;;7.82;;
3819;SDS011;1925;51.356;9.530;2023-03-01T00:53:29;9.63;;;7.55;;
3819;SDS011;1925;51.356;9.530;2023-03-01T00:55:56;11.50;;;8.07;;
3819;SDS011;1925;51.356;9.530;2023-03-01T00:58:22;12.20;;;8.25;;
3819;SDS011;1925;51.356;9.530;2023-03-01T01:00:48;10.63;;;8.50;;
3819;SDS011;1925;51.356;9.530;2023-03-01T01:03:15;11.30;;;8.15;;
3819;SDS011;1925;51.356;9.530;2023-03-01T01:05:40;10.60;;;7.23;;
3819;SDS011;1925;51.356;9.530;2023-03-01T01:08:06;11.55;;;7.82;;
3819;SDS011;1925;51.356;9.530;2023-03-01T01:10:35;8.73;;;7.70;;
3819;SDS011;1925;51.356;9.530;2023-03-01T01:13:02;11.70;;;7.82;;
3819;SDS011;1925;51.356;9.530;2023-03-01T01:15:28;11.45;;;7.50;;
3819;SDS011;1925;51.356;9.530;2023-03-01T01:17:54;12.10;;;7.90;;
3819;SDS011;1925;51.356;9.530;2023-03-01T01:20:20;11.35;;;7.75;;
3819;SDS011;1925;51.356;9.530;2023-03-01T01:22:46;12.55;;;7.40;;
3819;SDS011;1925;51.356;9.530;2023-03-01T01:25:12;13.30;;;8.47;;
3819;SDS011;1925;51.356;9.530;2023-03-01T01:27:38;12.00;;;7.43;;
3819;SDS011;1925;51.356;9.530;2023-03-01T01:30:04;11.23;;;7.00;;
3819;SDS011;1925;51.356;9.530;2023-03-01T01:32:30;10.15;;;7.05;;
3819;SDS011;1925;51.356;9.530;2023-03-01T01:34:56;12.57;;;8.47;;
3819;SDS011;1925;51.356;9.530;2023-03-01T01:37:22;12.90;;;8.60;;
3819;SDS011;1925;51.356;9.530;2023-03-01T01:39:48;11.23;;;7.97;;
3819;SDS011;1925;51.356;9.530;2023-03-01T01:42:17;9.83;;;7.97;;
3819;SDS011;1925;51.356;9.530;2023-03-01T01:44:45;12.48;;;8.48;;
3819;SDS011;1925;51.356;9.530;2023-03-01T01:47:12;10.88;;;8.55;;
3819;SDS011;1925;51.356;9.530;2023-03-01T01:49:44;13.07;;;8.45;;
3819;SDS011;1925;51.356;9.530;2023-03-01T01:52:15;12.07;;;7.72;;
3819;SDS011;1925;51.356;9.530;2023-03-01T01:54:47;11.85;;;7.13;;
3819;SDS011;1925;51.356;9.530;2023-03-01T01:57:16;11.07;;;7.53;;
3819;SDS011;1925;51.356;9.530;2023-03-01T01:59:45;10.30;;;7.70;;
3819;SDS011;1925;51.356;9.530;2023-03-01T02:02:13;9.57;;;7.57;;
3819;SDS011;1925;51.356;9.530;2023-03-01T02:04:39;11.15;;;7.85;;
3819;SDS011;1925;51.356;9.530;2023-03-01T02:07:14;14.85;;;8.25;;
3819;SDS011;1925;51.356;9.530;2023-03-01T02:09:41;8.65;;;7.00;;
3819;SDS011;1925;51.356;9.530;2023-03-01T02:12:07;16.17;;;10.75;;
3819;SDS011;1925;51.356;9.530;2023-03-01T02:14:33;12.32;;;7.72;;
3819;SDS011;1925;51.356;9.530;2023-03-01T02:16:59;11.47;;;7.30;;
3819;SDS011;1925;51.356;9.530;2023-03-01T02:19:34;11.40;;;7.47;;
3819;SDS011;1925;51.356;9.530;2023-03-01T02:22:04;9.40;;;7.20;;
3819;SDS011;1925;51.356;9.530;2023-03-01T02:24:41;10.77;;;8.27;;
3819;SDS011;1925;51.356;9.530;2023-03-01T02:27:10;10.27;;;7.05;;
3819;SDS011;1925;51.356;9.530;2023-03-01T02:29:37;13.50;;;7.43;;
3819;SDS011;1925;51.356;9.530;2023-03-01T02:32:04;8.90;;;6.60;;
3819;SDS011;1925;51.356;9.530;2023-03-01T02:34:30;8.30;;;7.10;;
3819;SDS011;1925;51.356;9.530;2023-03-01T02:36:59;11.27;;;7.85;;
3819;SDS011;1925;51.356;9.530;2023-03-01T02:39:27;13.07;;;7.57;;
3819;SDS011;1925;51.356;9.530;2023-03-01T02:41:54;10.48;;;7.28;;
3819;SDS011;1925;51.356;9.530;2023-03-01T02:44:22;9.55;;;7.75;;
3819;SDS011;1925;51.356;9.530;2023-03-01T02:46:49;10.40;;;6.75;;
3819;SDS011;1925;51.356;9.530;2023-03-01T02:49:26;10.93;;;7.35;;
3819;SDS011;1925;51.356;9.530;2023-03-01T02:54:30;13.35;;;8.05;;
3819;SDS011;1925;51.356;9.530;2023-03-01T02:56:57;10.50;;;7.65;;
3819;SDS011;1925;51.356;9.530;2023-03-01T02:59:27;8.20;;;6.50;;
3819;SDS011;1925;51.356;9.530;2023-03-01T03:01:54;10.95;;;7.55;;
3819;SDS011;1925;51.356;9.530;2023-03-01T03:04:20;11.93;;;9.10;;
3819;SDS011;1925;51.356;9.530;2023-03-01T03:06:46;11.35;;;7.63;;
3819;SDS011;1925;51.356;9.530;2023-03-01T03:09:13;10.43;;;8.00;;
3819;SDS011;1925;51.356;9.530;2023-03-01T03:11:40;8.40;;;6.28;;
3819;SDS011;1925;51.356;9.530;2023-03-01T03:14:08;11.85;;;7.20;;
3819;SDS011;1925;51.356;9.530;2023-03-01T03:16:44;11.60;;;7.25;;
3819;SDS011;1925;51.356;9.530;2023-03-01T03:19:10;11.82;;;7.40;;
3819;SDS011;1925;51.356;9.530;2023-03-01T03:21:36;9.88;;;6.75;;
3819;SDS011;1925;51.356;9.530;2023-03-01T03:24:03;8.63;;;6.43;;
3819;SDS011;1925;51.356;9.530;2023-03-01T03:26:29;6.70;;;5.75;;
3819;SDS011;1925;51.356;9.530;2023-03-01T03:28:55;10.63;;;6.30;;
3819;SDS011;1925;51.356;9.530;2023-03-01T03:31:21;7.95;;;6.70;;
3819;SDS011;1925;51.356;9.530;2023-03-01T03:33:47;11.30;;;6.82;;
3819;SDS011;1925;51.356;9.530;2023-03-01T03:36:18;12.73;;;7.03;;
3819;SDS011;1925;51.356;9.530;2023-03-01T03:38:44;11.20;;;6.70;;
3819;SDS011;1925;51.356;9.530;2023-03-01T03:41:10;7.85;;;6.07;;
3819;SDS011;1925;51.356;9.530;2023-03-01T03:43:37;10.38;;;6.47;;
3819;SDS011;1925;51.356;9.530;2023-03-01T03:46:03;10.80;;;6.50;;
3819;SDS011;1925;51.356;9.530;2023-03-01T03:48:33;9.27;;;6.72;;
3819;SDS011;1925;51.356;9.530;2023-03-01T03:50:59;8.63;;;7.43;;
3819;SDS011;1925;51.356;9.530;2023-03-01T03:53:26;8.60;;;6.50;;
3819;SDS011;1925;51.356;9.530;2023-03-01T03:55:52;10.68;;;7.00;;
3819;SDS011;1925;51.356;9.530;2023-03-01T03:58:19;8.52;;;6.90;;
3819;SDS011;1925;51.356;9.530;2023-03-01T04:00:46;11.40;;;6.68;;
3819;SDS011;1925;51.356;9.530;2023-03-01T04:03:13;8.95;;;6.60;;
3819;SDS011;1925;51.356;9.530;2023-03-01T04:05:40;11.85;;;7.65;;
3819;SDS011;1925;51.356;9.530;2023-03-01T04:08:06;8.18;;;6.13;;
3819;SDS011;1925;51.356;9.530;2023-03-01T04:10:33;8.85;;;6.43;;
3819;SDS011;1925;51.356;9.530;2023-03-01T04:13:00;8.48;;;7.07;;
3819;SDS011;1925;51.356;9.530;2023-03-01T04:15:26;9.70;;;7.03;;
3819;SDS011;1925;51.356;9.530;2023-03-01T04:17:53;7.75;;;6.28;;
3819;SDS011;1925;51.356;9.530;2023-03-01T04:20:20;8.20;;;7.03;;
3819;SDS011;1925;51.356;9.530;2023-03-01T04:22:56;8.23;;;6.50;;
3819;SDS011;1925;51.356;9.530;2023-03-01T04:25:22;11.32;;;7.75;;
3819;SDS011;1925;51.356;9.530;2023-03-01T04:27:48;8.25;;;6.68;;
3819;SDS011;1925;51.356;9.530;2023-03-01T04:30:14;11.20;;;6.23;;
3819;SDS011;1925;51.356;9.530;2023-03-01T04:32:40;7.93;;;6.40;;
3819;SDS011;1925;51.356;9.530;2023-03-01T04:35:06;7.20;;;5.80;;
3819;SDS011;1925;51.356;9.530;2023-03-01T04:37:32;8.68;;;6.72;;
3819;SDS011;1925;51.356;9.530;2023-03-01T04:39:59;8.68;;;6.38;;
3819;SDS011;1925;51.356;9.530;2023-03-01T04:42:26;9.68;;;6.55;;
3819;SDS011;1925;51.356;9.530;2023-03-01T04:44:51;7.90;;;5.77;;
3819;SDS011;1925;51.356;9.530;2023-03-01T04:47:17;6.83;;;5.77;;
3819;SDS011;1925;51.356;9.530;2023-03-01T04:49:43;8.20;;;6.80;;
3819;SDS011;1925;51.356;9.530;2023-03-01T04:52:09;9.73;;;6.70;;
3819;SDS011;1925;51.356;9.530;2023-03-01T04:54:35;8.38;;;6.65;;
3819;SDS011;1925;51.356;9.530;2023-03-01T04:57:02;12.43;;;7.10;;
3819;SDS011;1925;51.356;9.530;2023-03-01T04:59:28;8.60;;;5.85;;
3819;SDS011;1925;51.356;9.530;2023-03-01T05:01:55;10.47;;;7.27;;
3819;SDS011;1925;51.356;9.530;2023-03-01T05:04:21;8.05;;;6.63;;
3819;SDS011;1925;51.356;9.530;2023-03-01T05:06:47;9.23;;;7.30;;
3819;SDS011;1925;51.356;9.530;2023-03-01T05:09:13;9.18;;;6.43;;
3819;SDS011;1925;51.356;9.530;2023-03-01T05:11:39;9.88;;;6.63;;
3819;SDS011;1925;51.356;9.530;2023-03-01T05:14:06;11.90;;;6.70;;
3819;SDS011;1925;51.356;9.530;2023-03-01T05:16:32;8.32;;;5.93;;
3819;SDS011;1925;51.356;9.530;2023-03-01T05:18:58;9.65;;;6.85;;
3819;SDS011;1925;51.356;9.530;2023-03-01T05:21:25;8.23;;;5.97;;
3819;SDS011;1925;51.356;9.530;2023-03-01T05:23:51;10.40;;;6.93;;
3819;SDS011;1925;51.356;9.530;2023-03-01T05:26:18;9.23;;;6.10;;
3819;SDS011;1925;51.356;9.530;2023-03-01T05:28:46;7.05;;;5.45;;
3819;SDS011;1925;51.356;9.530;2023-03-01T05:31:12;10.57;;;6.78;;
3819;SDS011;1925;51.356;9.530;2023-03-01T05:33:39;9.80;;;7.63;;
3819;SDS011;1925;51.356;9.530;2023-03-01T05:36:08;10.35;;;6.75;;
3819;SDS011;1925;51.356;9.530;2023-03-01T05:38:37;9.27;;;6.68;;
3819;SDS011;1925;51.356;9.530;2023-03-01T05:41:03;11.10;;;7.47;;
3819;SDS011;1925;51.356;9.530;2023-03-01T05:43:32;10.90;;;7.85;;
3819;SDS011;1925;51.356;9.530;2023-03-01T05:45:59;8.18;;;6.05;;
3819;SDS011;1925;51.356;9.530;2023-03-01T05:48:25;9.02;;;6.88;;
3819;SDS011;1925;51.356;9.530;2023-03-01T05:50:51;8.30;;;6.70;;
3819;SDS011;1925;51.356;9.530;2023-03-01T05:53:18;10.02;;;6.72;;
3819;SDS011;1925;51.356;9.530;2023-03-01T05:55:46;12.60;;;7.07;;
3819;SDS011;1925;51.356;9.530;2023-03-01T05:58:16;10.90;;;6.80;;
3819;SDS011;1925;51.356;9.530;2023-03-01T06:00:43;8.25;;;6.80;;
3819;SDS011;1925;51.356;9.530;2023-03-01T06:03:10;9.18;;;7.63;;
3819;SDS011;1925;51.356;9.530;2023-03-01T06:05:36;9.25;;;7.30;;
3819;SDS011;1925;51.356;9.530;2023-03-01T06:08:03;9.35;;;7.60;;
3819;SDS011;1925;51.356;9.530;2023-03-01T06:10:29;11.50;;;7.18;;
3819;SDS011;1925;51.356;9.530;2023-03-01T06:12:55;9.57;;;6.43;;
3819;SDS011;1925;51.356;9.530;2023-03-01T06:15:22;13.18;;;6.65;;
3819;SDS011;1925;51.356;9.530;2023-03-01T06:17:48;10.95;;;7.88;;
3819;SDS011;1925;51.356;9.530;2023-03-01T06:20:15;12.20;;;7.90;;
3819;SDS011;1925;51.356;9.530;2023-03-01T06:22:42;7.63;;;6.45;;
3819;SDS011;1925;51.356;9.530;2023-03-01T06:25:08;7.63;;;6.00;;
3819;SDS011;1925;51.356;9.530;2023-03-01T06:27:34;9.75;;;6.65;;
3819;SDS011;1925;51.356;9.530;2023-03-01T06:30:00;8.68;;;6.32;;
3819;SDS011;1925;51.356;9.530;2023-03-01T06:32:26;8.88;;;6.47;;
3819;SDS011;1925;51.356;9.530;2023-03-01T06:34:52;9.30;;;6.97;;
3819;SDS011;1925;51.356;9.530;2023-03-01T06:37:18;9.50;;;7.50;;
3819;SDS011;1925;51.356;9.530;2023-03-01T06:39:44;8.50;;;7.03;;
3819;SDS011;1925;51.356;9.530;2023-03-01T06:42:10;11.50;;;7.47;;
3819;SDS011;1925;51.356;9.530;2023-03-01T06:44:36;8.50;;;5.78;;
3819;SDS011;1925;51.356;9.530;2023-03-01T06:47:02;11.15;;;6.97;;
3819;SDS011;1925;51.356;9.530;2023-03-01T06:49:28;8.50;;;6.53;;
3819;SDS011;1925;51.356;9.530;2023-03-01T06:51:55;9.43;;;7.25;;
3819;SDS011;1925;51.356;9.530;2023-03-01T06:54:21;10.83;;;7.07;;
3819;SDS011;1925;51.356;9.530;2023-03-01T06:56:47;10.82;;;7.25;;
3819;SDS011;1925;51.356;9.530;2023-03-01T06:59:13;10.65;;;7.38;;
3819;SDS011;1925;51.356;9.530;2023-03-01T07:01:39;11.03;;;8.03;;
3819;SDS011;1925;51.356;9.530;2023-03-01T07:04:05;11.40;;;8.33;;
3819;SDS011;1925;51.356;9.530;2023-03-01T07:06:31;10.77;;;7.73;;
3819;SDS011;1925;51.356;9.530;2023-03-01T07:08:57;12.55;;;7.82;;
3819;SDS011;1925;51.356;9.530;2023-03-01T07:11:23;12.63;;;7.30;;
3819;SDS011;1925;51.356;9.530;2023-03-01T07:13:49;11.63;;;7.93;;
3819;SDS011;1925;51.356;9.530;2023-03-01T07:16:15;13.35;;;8.10;;
3819;SDS011;1925;51.356;9.530;2023-03-01T07:18:41;11.87;;;7.40;;
3819;SDS011;1925;51.356;9.530;2023-03-01T07:21:07;15.32;;;8.05;;
3819;SDS011;1925;51.356;9.530;2023-03-01T07:23:33;12.63;;;10.40;;
3819;SDS011;1925;51.356;9.530;2023-03-01T07:25:59;10.60;;;8.43;;
3819;SDS011;1925;51.356;9.530;2023-03-01T07:28:25;14.73;;;8.07;;
3819;SDS011;1925;51.356;9.530;2023-03-01T07:30:52;10.52;;;7.57;;
3819;SDS011;1925;51.356;9.530;2023-03-01T07:33:18;12.23;;;8.87;;
3819;SDS011;1925;51.356;9.530;2023-03-01T07:35:44;8.50;;;6.30;;
3819;SDS011;1925;51.356;9.530;2023-03-01T07:38:10;10.73;;;7.57;;
3819;SDS011;1925;51.356;9.530;2023-03-01T07:40:36;10.30;;;7.33;;
3819;SDS011;1925;51.356;9.530;2023-03-01T07:43:02;9.38;;;6.43;;
3819;SDS011;1925;51.356;9.530;2023-03-01T07:45:28;10.25;;;7.43;;
3819;SDS011;1925;51.356;9.530;2023-03-01T07:47:54;13.27;;;8.13;;
3819;SDS011;1925;51.356;9.530;2023-03-01T07:50:21;9.77;;;6.15;;
3819;SDS011;1925;51.356;9.530;2023-03-01T07:52:47;15.13;;;7.53;;
3819;SDS011;1925;51.356;9.530;2023-03-01T07:55:13;12.70;;;8.27;;
3819;SDS011;1925;51.356;9.530;2023-03-01T07:57:40;11.10;;;7.25;;
3819;SDS011;1925;51.356;9.530;2023-03-01T08:00:06;14.03;;;8.90;;
3819;SDS011;1925;51.356;9.530;2023-03-01T08:02:32;12.15;;;7.45;;
3819;SDS011;1925;51.356;9.530;2023-03-01T08:04:58;11.33;;;6.90;;
3819;SDS011;1925;51.356;9.530;2023-03-01T08:07:24;9.73;;;5.90;;
3819;SDS011;1925;51.356;9.530;2023-03-01T08:09:50;9.00;;;5.47;;
3819;SDS011;1925;51.356;9.530;2023-03-01T08:12:16;6.60;;;5.50;;
3819;SDS011;1925;51.356;9.530;2023-03-01T08:14:42;7.40;;;6.30;;
3819;SDS011;1925;51.356;9.530;2023-03-01T08:17:08;9.40;;;5.13;;
3819;SDS011;1925;51.356;9.530;2023-03-01T08:19:34;5.67;;;5.10;;
3819;SDS011;1925;51.356;9.530;2023-03-01T08:22:03;8.15;;;5.50;;
3819;SDS011;1925;51.356;9.530;2023-03-01T08:24:29;10.15;;;5.70;;
3819;SDS011;1925;51.356;9.530;2023-03-01T08:26:55;9.30;;;6.20;;
3819;SDS011;1925;51.356;9.530;2023-03-01T08:29:21;8.57;;;6.30;;
3819;SDS011;1925;51.356;9.530;2023-03-01T08:31:49;9.52;;;6.35;;
3819;SDS011;1925;51.356;9.530;2023-03-01T08:34:16;13.17;;;5.53;;
3819;SDS011;1925;51.356;9.530;2023-03-01T08:36:42;7.35;;;4.95;;
3819;SDS011;1925;51.356;9.530;2023-03-01T08:39:09;8.60;;;5.60;;
3819;SDS011;1925;51.356;9.530;2023-03-01T08:41:36;5.45;;;4.65;;
3819;SDS011;1925;51.356;9.530;2023-03-01T08:44:02;8.27;;;5.00;;
3819;SDS011;1925;51.356;9.530;2023-03-01T08:46:29;7.57;;;6.30;;
3819;SDS011;1925;51.356;9.530;2023-03-01T08:48:55;6.30;;;5.55;;
3819;SDS011;1925;51.356;9.530;2023-03-01T08:51:22;8.73;;;6.05;;
3819;SDS011;1925;51.356;9.530;2023-03-01T08:53:48;6.40;;;5.80;;
3819;SDS011;1925;51.356;9.530;2023-03-01T08:56:14;7.03;;;5.63;;
3819;SDS011;1925;51.356;9.530;2023-03-01T08:58:43;6.65;;;5.05;;
3819;SDS011;1925;51.356;9.530;2023-03-01T09:01:13;7.55;;;5.85;;
3819;SDS011;1925;51.356;9.530;2023-03-01T09:03:39;6.00;;;5.40;;
3819;SDS011;1925;51.356;9.530;2023-03-01T09:06:06;7.27;;;5.20;;
3819;SDS011;1925;51.356;9.530;2023-03-01T09:08:36;9.05;;;5.45;;
3819;SDS011;1925;51.356;9.530;2023-03-01T09:11:03;6.35;;;5.00;;
3819;SDS011;1925;51.356;9.530;2023-03-01T09:13:29;11.35;;;5.82;;
3819;SDS011;1925;51.356;9.530;2023-03-01T09:15:59;9.18;;;5.35;;
3819;SDS011;1925;51.356;9.530;2023-03-01T09:18:26;8.55;;;5.85;;
3819;SDS011;1925;51.356;9.530;2023-03-01T09:20:52;5.93;;;5.32;;
3819;SDS011;1925;51.356;9.530;2023-03-01T09:23:21;7.00;;;5.03;;
3819;SDS011;1925;51.356;9.530;2023-03-01T09:25:47;6.73;;;4.90;;
3819;SDS011;1925;51.356;9.530;2023-03-01T09:28:13;7.20;;;5.30;;
3819;SDS011;1925;51.356;9.530;2023-03-01T09:30:39;8.63;;;5.20;;
3819;SDS011;1925;51.356;9.530;2023-03-01T09:33:05;7.20;;;5.00;;
3819;SDS011;1925;51.356;9.530;2023-03-01T09:35:31;6.57;;;5.23;;
3819;SDS011;1925;51.356;9.530;2023-03-01T09:37:56;7.40;;;5.97;;
3819;SDS011;1925;51.356;9.530;2023-03-01T09:40:23;8.63;;;5.50;;
3819;SDS011;1925;51.356;9.530;2023-03-01T09:42:54;7.10;;;4.38;;
3819;SDS011;1925;51.356;9.530;2023-03-01T09:45:54;5.63;;;4.60;;
3819;SDS011;1925;51.356;9.530;2023-03-01T09:48:18;7.30;;;5.20;;
3819;SDS011;1925;51.356;9.530;2023-03-01T09:50:46;8.25;;;5.07;;
3819;SDS011;1925;51.356;9.530;2023-03-01T09:55:39;7.10;;;5.50;;
3819;SDS011;1925;51.356;9.530;2023-03-01T09:58:29;7.43;;;4.95;;
3819;SDS011;1925;51.356;9.530;2023-03-01T10:00:58;8.20;;;6.45;;
3819;SDS011;1925;51.356;9.530;2023-03-01T10:11:12;8.35;;;5.68;;
3819;SDS011;1925;51.356;9.530;2023-03-01T10:13:46;8.52;;;5.97;;
3819;SDS011;1925;51.356;9.530;2023-03-01T10:16:16;7.88;;;5.28;;
3819;SDS011;1925;51.356;9.530;2023-03-01T10:18:46;9.15;;;6.00;;
3819;SDS011;1925;51.356;9.530;2023-03-01T10:21:19;5.65;;;4.90;;
3819;SDS011;1925;51.356;9.530;2023-03-01T10:23:46;8.93;;;6.25;;
3819;SDS011;1925;51.356;9.530;2023-03-01T10:26:22;6.70;;;5.30;;
3819;SDS011;1925;51.356;9.530;2023-03-01T10:29:02;7.53;;;5.45;;
3819;SDS011;1925;51.356;9.530;2023-03-01T10:31:37;9.25;;;6.80;;
3819;SDS011;1925;51.356;9.530;2023-03-01T10:34:10;10.38;;;5.68;;
3819;SDS011;1925;51.356;9.530;2023-03-01T10:36:38;7.07;;;5.80;;
3819;SDS011;1925;51.356;9.530;2023-03-01T10:39:10;7.65;;;5.68;;
3819;SDS011;1925;51.356;9.530;2023-03-01T10:41:37;10.35;;;5.38;;
3819;SDS011;1925;51.356;9.530;2023-03-01T10:44:11;7.35;;;6.20;;
3819;SDS011;1925;51.356;9.530;2023-03-01T10:47:00;7.05;;;5.72;;
3819;SDS011;1925;51.356;9.530;2023-03-01T10:49:26;9.70;;;5.75;;
3819;SDS011;1925;51.356;9.530;2023-03-01T10:51:53;6.93;;;5.68;;
3819;SDS011;1925;51.356;9.530;2023-03-01T10:54:20;11.93;;;6.32;;
3819;SDS011;1925;51.356;9.530;2023-03-01T10:56:47;6.85;;;5.45;;
3819;SDS011;1925;51.356;9.530;2023-03-01T10:59:22;10.18;;;6.60;;
3819;SDS011;1925;51.356;9.530;2023-03-01T11:01:49;13.07;;;6.60;;
3819;SDS011;1925;51.356;9.530;2023-03-01T11:04:27;8.10;;;6.68;;
3819;SDS011;1925;51.356;9.530;2023-03-01T11:06:59;9.27;;;6.57;;
3819;SDS011;1925;51.356;9.530;2023-03-01T11:09:26;9.75;;;6.38;;
3819;SDS011;1925;51.356;9.530;2023-03-01T11:12:02;8.48;;;6.20;;
3819;SDS011;1925;51.356;9.530;2023-03-01T11:14:38;11.55;;;8.00;;
3819;SDS011;1925;51.356;9.530;2023-03-01T11:17:11;7.90;;;6.68;;
3819;SDS011;1925;51.356;9.530;2023-03-01T11:19:38;9.50;;;6.15;;
3819;SDS011;1925;51.356;9.530;2023-03-01T11:27:14;7.13;;;6.38;;
3819;SDS011;1925;51.356;9.530;2023-03-01T11:29:43;7.10;;;6.10;;
3819;SDS011;1925;51.356;9.530;2023-03-01T11:32:11;10.57;;;5.60;;
3819;SDS011;1925;51.356;9.530;2023-03-01T11:34:50;12.30;;;6.20;;
3819;SDS011;1925;51.356;9.530;2023-03-01T11:38:02;8.73;;;5.93;;
3819;SDS011;1925;51.356;9.530;2023-03-01T11:40:13;8.05;;;5.80;;
3819;SDS011;1925;51.356;9.530;2023-03-01T11:45:13;9.35;;;6.20;;
3819;SDS011;1925;51.356;9.530;2023-03-01T11:55:28;8.57;;;6.50;;
3819;SDS011;1925;51.356;9.530;2023-03-01T12:00:44;8.20;;;5.95;;
3819;SDS011;1925;51.356;9.530;2023-03-01T12:06:03;9.93;;;6.25;;
3819;SDS011;1925;51.356;9.530;2023-03-01T12:11:03;10.48;;;8.18;;
3819;SDS011;1925;51.356;9.530;2023-03-01T12:21:44;6.75;;;5.20;;
3819;SDS011;1925;51.356;9.530;2023-03-01T12:24:20;6.88;;;6.18;;
3819;SDS011;1925;51.356;9.530;2023-03-01T12:26:56;6.85;;;6.10;;
3819;SDS011;1925;51.356;9.530;2023-03-01T12:42:06;15.27;;;5.90;;
3819;SDS011;1925;51.356;9.530;2023-03-01T12:49:48;9.68;;;5.18;;
3819;SDS011;1925;51.356;9.530;2023-03-01T12:52:32;7.10;;;5.30;;
3819;SDS011;1925;51.356;9.530;2023-03-01T12:54:59;7.28;;;5.55;;
3819;SDS011;1925;51.356;9.530;2023-03-01T13:00:27;8.48;;;6.00;;
3819;SDS011;1925;51.356;9.530;2023-03-01T13:03:33;7.47;;;5.70;;
3819;SDS011;1925;51.356;9.530;2023-03-01T13:08:31;9.85;;;7.15;;
3819;SDS011;1925;51.356;9.530;2023-03-01T13:11:11;6.68;;;5.50;;
3819;SDS011;1925;51.356;9.530;2023-03-01T13:13:40;6.97;;;4.80;;
3819;SDS011;1925;51.356;9.530;2023-03-01T13:16:38;6.87;;;4.70;;
3819;SDS011;1925;51.356;9.530;2023-03-01T13:19:20;7.15;;;5.32;;
3819;SDS011;1925;51.356;9.530;2023-03-01T13:21:47;8.15;;;5.32;;
3819;SDS011;1925;51.356;9.530;2023-03-01T13:32:22;5.80;;;4.25;;
3819;SDS011;1925;51.356;9.530;2023-03-01T13:34:49;6.07;;;3.92;;
3819;SDS011;1925;51.356;9.530;2023-03-01T13:37:19;6.30;;;4.40;;
3819;SDS011;1925;51.356;9.530;2023-03-01T13:39:46;5.90;;;4.53;;
3819;SDS011;1925;51.356;9.530;2023-03-01T13:44:57;6.82;;;4.22;;
3819;SDS011;1925;51.356;9.530;2023-03-01T13:47:23;6.65;;;5.25;;
3819;SDS011;1925;51.356;9.530;2023-03-01T13:49:50;5.68;;;4.90;;
3819;SDS011;1925;51.356;9.530;2023-03-01T13:54:50;6.20;;;4.65;;
3819;SDS011;1925;51.356;9.530;2023-03-01T13:57:19;4.63;;;4.23;;
3819;SDS011;1925;51.356;9.530;2023-03-01T13:59:46;6.80;;;3.90;;
3819;SDS011;1925;51.356;9.530;2023-03-01T14:02:13;6.28;;;4.43;;
3819;SDS011;1925;51.356;9.530;2023-03-01T14:04:39;4.93;;;4.40;;
3819;SDS011;1925;51.356;9.530;2023-03-01T14:07:19;7.85;;;4.63;;
3819;SDS011;1925;51.356;9.530;2023-03-01T14:09:47;7.57;;;4.90;;
3819;SDS011;1925;51.356;9.530;2023-03-01T14:17:48;5.20;;;4.70;;
3819;SDS011;1925;51.356;9.530;2023-03-01T14:20:19;5.00;;;4.40;;
3819;SDS011;1925;51.356;9.530;2023-03-01T14:22:45;6.05;;;4.45;;
3819;SDS011;1925;51.356;9.530;2023-03-01T14:25:23;5.00;;;4.50;;
3819;SDS011;1925;51.356;9.530;2023-03-01T14:28:49;5.30;;;4.68;;
3819;SDS011;1925;51.356;9.530;2023-03-01T14:30:45;7.40;;;5.05;;
3819;SDS011;1925;51.356;9.530;2023-03-01T14:33:19;6.82;;;4.57;;
3819;SDS011;1925;51.356;9.530;2023-03-01T14:35:51;5.70;;;4.45;;
3819;SDS011;1925;51.356;9.530;2023-03-01T14:38:29;6.63;;;5.18;;
3819;SDS011;1925;51.356;9.530;2023-03-01T14:40:57;9.52;;;6.38;;
3819;SDS011;1925;51.356;9.530;2023-03-01T14:43:23;6.65;;;4.38;;
3819;SDS011;1925;51.356;9.530;2023-03-01T14:45:51;20.08;;;11.68;;
3819;SDS011;1925;51.356;9.530;2023-03-01T14:48:17;5.88;;;5.32;;
3819;SDS011;1925;51.356;9.530;2023-03-01T14:50:44;6.43;;;5.15;;
3819;SDS011;1925;51.356;9.530;2023-03-01T14:53:18;7.30;;;4.95;;
3819;SDS011;1925;51.356;9.530;2023-03-01T14:55:46;5.65;;;4.72;;
3819;SDS011;1925;51.356;9.530;2023-03-01T14:58:14;8.10;;;5.45;;
3819;SDS011;1925;51.356;9.530;2023-03-01T15:00:44;5.40;;;4.22;;
3819;SDS011;1925;51.356;9.530;2023-03-01T15:03:23;6.28;;;4.65;;
3819;SDS011;1925;51.356;9.530;2023-03-01T15:05:49;4.22;;;3.85;;
3819;SDS011;1925;51.356;9.530;2023-03-01T15:08:20;9.75;;;5.40;;
3819;SDS011;1925;51.356;9.530;2023-03-01T15:11:00;8.25;;;4.75;;
3819;SDS011;1925;51.356;9.530;2023-03-01T15:13:29;7.03;;;4.75;;
3819;SDS011;1925;51.356;9.530;2023-03-01T15:16:17;7.47;;;5.25;;
3819;SDS011;1925;51.356;9.530;2023-03-01T15:18:49;6.93;;;5.05;;
3819;SDS011;1925;51.356;9.530;2023-03-01T15:21:17;6.68;;;4.85;;
3819;SDS011;1925;51.356;9.530;2023-03-01T15:23:47;6.90;;;4.32;;
3819;SDS011;1925;51.356;9.530;2023-03-01T15:26:50;6.15;;;5.20;;
3819;SDS011;1925;51.356;9.530;2023-03-01T15:29:10;7.40;;;5.28;;
3819;SDS011;1925;51.356;9.530;2023-03-01T15:31:41;8.02;;;5.03;;
3819;SDS011;1925;51.356;9.530;2023-03-01T15:34:21;5.72;;;4.65;;
3819;SDS011;1925;51.356;9.530;2023-03-01T15:36:48;4.63;;;4.22;;
3819;SDS011;1925;51.356;9.530;2023-03-01T15:42:02;7.30;;;4.80;;
3819;SDS011;1925;51.356;9.530;2023-03-01T15:46:54;7.23;;;3.90;;
3819;SDS011;1925;51.356;9.530;2023-03-01T15:51:46;5.03;;;4.43;;
3819;SDS011;1925;51.356;9.530;2023-03-01T15:54:18;7.50;;;5.17;;
3819;SDS011;1925;51.356;9.530;2023-03-01T15:56:45;9.80;;;4.13;;
3819;SDS011;1925;51.356;9.530;2023-03-01T15:59:11;9.70;;;5.15;;
3819;SDS011;1925;51.356;9.530;2023-03-01T16:01:39;7.57;;;4.60;;
3819;SDS011;1925;51.356;9.530;2023-03-01T16:04:04;6.15;;;4.85;;
3819;SDS011;1925;51.356;9.530;2023-03-01T16:06:30;5.17;;;4.47;;
3819;SDS011;1925;51.356;9.530;2023-03-01T16:08:56;6.50;;;4.40;;
3819;SDS011;1925;51.356;9.530;2023-03-01T16:11:22;6.60;;;5.13;;
3819;SDS011;1925;51.356;9.530;2023-03-01T16:13:48;6.10;;;4.80;;
3819;SDS011;1925;51.356;9.530;2023-03-01T16:16:15;7.65;;;5.18;;
3819;SDS011;1925;51.356;9.530;2023-03-01T16:18:42;6.68;;;4.60;;
3819;SDS011;1925;51.356;9.530;2023-03-01T16:21:11;7.43;;;5.40;;
3819;SDS011;1925;51.356;9.530;2023-03-01T16:23:37;6.55;;;4.50;;
3819;SDS011;1925;51.356;9.530;2023-03-01T16:26:03;10.37;;;5.10;;
3819;SDS011;1925;51.356;9.530;2023-03-01T16:28:29;4.90;;;4.40;;
3819;SDS011;1925;51.356;9.530;2023-03-01T16:30:55;7.72;;;5.13;;
3819;SDS011;1925;51.356;9.530;2023-03-01T16:33:21;7.23;;;4.10;;
3819;SDS011;1925;51.356;9.530;2023-03-01T16:35:47;6.20;;;4.57;;
3819;SDS011;1925;51.356;9.530;2023-03-01T16:38:14;10.70;;;5.35;;
3819;SDS011;1925;51.356;9.530;2023-03-01T16:40:40;5.20;;;4.70;;
3819;SDS011;1925;51.356;9.530;2023-03-01T16:43:12;7.30;;;4.20;;
3819;SDS011;1925;51.356;9.530;2023-03-01T16:45:38;6.07;;;4.27;;
3819;SDS011;1925;51.356;9.530;2023-03-01T16:48:05;6.22;;;4.88;;
3819;SDS011;1925;51.356;9.530;2023-03-01T16:50:31;6.38;;;4.40;;
3819;SDS011;1925;51.356;9.530;2023-03-01T16:52:57;6.67;;;4.10;;